aviador You're here:

ETNL Decoded Metar

LAAGE in GERMANY
Report Time2018-02-21 20:20:00
UTC Time2018-02-21 21:18:49
Flight Rules vfr VFR
Wind310° at 01 kt
W.Decomp.*RWY 28: 0.9 kt HW 0.5 kt RCW
W.Rank310° ranks 18
Current wind is below 310° avg. (8.5)
Visibility9999 m
Phenomena:N/A
Clouds:Scattered 150 Hf
CeilingNone
Temp-3°C (ISA -18)
Dew Point-3°C (100% RH)
AAT-5.7°C
QNH1027 hPa
Density Alt-2,461 ft
Elevation131 ft
Report Wrong Elevation
Raw Report
METAR ETNL 212020Z 31001KT 9999 SCT150 M03/M03 Q1027 BLU+=

Extra information for ETNL:More info

Metar Taf Metar & Taf Last 4 Metars F.Rules Stats Wind Profile Meteogram Temp Stats Airport Information Weather charts Add Link Nearby VenuesMetar ALERT Operation Metar Decoded Social comments